sensor_id;sensor_type;location;lat;lon;timestamp;P1;durP1;ratioP1;P2;durP2;ratioP2
37495;SDS011;23346;52.088;4.746;2023-04-01T00:02:06;48.47;;;15.37;;
37495;SDS011;23346;52.088;4.746;2023-04-01T00:04:32;40.30;;;11.87;;
37495;SDS011;23346;52.088;4.746;2023-04-01T00:06:58;37.50;;;13.67;;
37495;SDS011;23346;52.088;4.746;2023-04-01T00:09:25;36.83;;;10.50;;
37495;SDS011;23346;52.088;4.746;2023-04-01T00:11:51;28.67;;;9.43;;
37495;SDS011;23346;52.088;4.746;2023-04-01T00:14:17;35.03;;;11.50;;
37495;SDS011;23346;52.088;4.746;2023-04-01T00:16:43;34.60;;;10.80;;
37495;SDS011;23346;52.088;4.746;2023-04-01T00:19:09;24.40;;;6.53;;
37495;SDS011;23346;52.088;4.746;2023-04-01T00:21:35;24.10;;;7.50;;
37495;SDS011;23346;52.088;4.746;2023-04-01T00:24:01;31.20;;;8.27;;
37495;SDS011;23346;52.088;4.746;2023-04-01T00:26:27;35.97;;;9.97;;
37495;SDS011;23346;52.088;4.746;2023-04-01T00:28:53;38.27;;;8.50;;
37495;SDS011;23346;52.088;4.746;2023-04-01T00:31:20;31.80;;;8.03;;
37495;SDS011;23346;52.088;4.746;2023-04-01T00:33:45;23.43;;;7.70;;
37495;SDS011;23346;52.088;4.746;2023-04-01T00:36:12;24.10;;;6.53;;
37495;SDS011;23346;52.088;4.746;2023-04-01T00:38:38;22.67;;;6.83;;
37495;SDS011;23346;52.088;4.746;2023-04-01T00:41:05;25.63;;;7.07;;
37495;SDS011;23346;52.088;4.746;2023-04-01T00:43:31;19.43;;;5.63;;
37495;SDS011;23346;52.088;4.746;2023-04-01T00:45:57;18.90;;;4.33;;
37495;SDS011;23346;52.088;4.746;2023-04-01T00:48:24;20.73;;;5.10;;
37495;SDS011;23346;52.088;4.746;2023-04-01T00:50:52;24.17;;;5.73;;
37495;SDS011;23346;52.088;4.746;2023-04-01T00:53:19;26.10;;;5.83;;
37495;SDS011;23346;52.088;4.746;2023-04-01T00:55:47;17.27;;;4.50;;
37495;SDS011;23346;52.088;4.746;2023-04-01T00:58:15;10.43;;;3.33;;
37495;SDS011;23346;52.088;4.746;2023-04-01T01:00:43;17.07;;;4.87;;
37495;SDS011;23346;52.088;4.746;2023-04-01T01:03:10;10.87;;;4.27;;
37495;SDS011;23346;52.088;4.746;2023-04-01T01:10:48;13.33;;;4.50;;
37495;SDS011;23346;52.088;4.746;2023-04-01T01:13:21;16.13;;;5.20;;
37495;SDS011;23346;52.088;4.746;2023-04-01T01:16:06;10.73;;;4.50;;
37495;SDS011;23346;52.088;4.746;2023-04-01T01:18:40;7.90;;;3.40;;
37495;SDS011;23346;52.088;4.746;2023-04-01T01:21:24;14.83;;;4.10;;
37495;SDS011;23346;52.088;4.746;2023-04-01T01:24:02;12.30;;;3.37;;
37495;SDS011;23346;52.088;4.746;2023-04-01T01:31:56;5.67;;;2.70;;
37495;SDS011;23346;52.088;4.746;2023-04-01T01:34:31;11.47;;;4.43;;
37495;SDS011;23346;52.088;4.746;2023-04-01T01:37:03;12.77;;;4.97;;
37495;SDS011;23346;52.088;4.746;2023-04-01T01:39:31;5.27;;;2.60;;
37495;SDS011;23346;52.088;4.746;2023-04-01T01:42:01;21.43;;;4.77;;
37495;SDS011;23346;52.088;4.746;2023-04-01T01:44:27;16.60;;;6.17;;
37495;SDS011;23346;52.088;4.746;2023-04-01T01:46:55;22.47;;;5.23;;
37495;SDS011;23346;52.088;4.746;2023-04-01T01:49:21;23.77;;;7.23;;
37495;SDS011;23346;52.088;4.746;2023-04-01T01:51:48;25.33;;;7.37;;
37495;SDS011;23346;52.088;4.746;2023-04-01T01:54:15;16.80;;;5.87;;
37495;SDS011;23346;52.088;4.746;2023-04-01T01:56:42;19.13;;;5.67;;
37495;SDS011;23346;52.088;4.746;2023-04-01T01:59:09;15.63;;;5.80;;
37495;SDS011;23346;52.088;4.746;2023-04-01T02:01:38;23.90;;;7.67;;
37495;SDS011;23346;52.088;4.746;2023-04-01T02:04:04;16.03;;;6.07;;
37495;SDS011;23346;52.088;4.746;2023-04-01T02:06:32;23.13;;;7.13;;
37495;SDS011;23346;52.088;4.746;2023-04-01T02:09:00;10.93;;;4.90;;
37495;SDS011;23346;52.088;4.746;2023-04-01T02:12:02;18.77;;;5.63;;
37495;SDS011;23346;52.088;4.746;2023-04-01T02:14:21;14.10;;;5.33;;
37495;SDS011;23346;52.088;4.746;2023-04-01T02:19:13;12.77;;;4.63;;
37495;SDS011;23346;52.088;4.746;2023-04-01T02:21:40;14.03;;;3.70;;
37495;SDS011;23346;52.088;4.746;2023-04-01T02:24:08;12.87;;;4.83;;
37495;SDS011;23346;52.088;4.746;2023-04-01T02:26:34;15.40;;;5.23;;
37495;SDS011;23346;52.088;4.746;2023-04-01T02:29:00;15.50;;;5.10;;
37495;SDS011;23346;52.088;4.746;2023-04-01T02:31:27;27.30;;;5.77;;
37495;SDS011;23346;52.088;4.746;2023-04-01T02:33:53;15.93;;;5.73;;
37495;SDS011;23346;52.088;4.746;2023-04-01T02:36:20;12.97;;;5.63;;
37495;SDS011;23346;52.088;4.746;2023-04-01T02:38:46;18.50;;;6.07;;
37495;SDS011;23346;52.088;4.746;2023-04-01T02:41:13;19.77;;;7.30;;
37495;SDS011;23346;52.088;4.746;2023-04-01T02:43:39;17.43;;;7.97;;
37495;SDS011;23346;52.088;4.746;2023-04-01T02:46:04;23.27;;;8.47;;
37495;SDS011;23346;52.088;4.746;2023-04-01T02:48:30;28.40;;;6.17;;
37495;SDS011;23346;52.088;4.746;2023-04-01T02:50:56;26.57;;;8.77;;
37495;SDS011;23346;52.088;4.746;2023-04-01T02:53:22;33.17;;;9.87;;
37495;SDS011;23346;52.088;4.746;2023-04-01T02:55:48;37.00;;;10.23;;
37495;SDS011;23346;52.088;4.746;2023-04-01T02:58:16;39.60;;;10.33;;
37495;SDS011;23346;52.088;4.746;2023-04-01T03:00:42;40.27;;;9.03;;
37495;SDS011;23346;52.088;4.746;2023-04-01T03:03:08;28.13;;;10.13;;
37495;SDS011;23346;52.088;4.746;2023-04-01T03:05:34;30.60;;;10.80;;
37495;SDS011;23346;52.088;4.746;2023-04-01T03:08:01;39.20;;;10.57;;
37495;SDS011;23346;52.088;4.746;2023-04-01T03:10:27;29.73;;;10.20;;
37495;SDS011;23346;52.088;4.746;2023-04-01T03:12:53;34.80;;;9.67;;
37495;SDS011;23346;52.088;4.746;2023-04-01T03:15:19;19.40;;;7.40;;
37495;SDS011;23346;52.088;4.746;2023-04-01T03:17:45;18.03;;;6.73;;
37495;SDS011;23346;52.088;4.746;2023-04-01T03:20:12;19.77;;;6.60;;
37495;SDS011;23346;52.088;4.746;2023-04-01T03:22:38;15.50;;;5.90;;
37495;SDS011;23346;52.088;4.746;2023-04-01T03:25:04;14.07;;;5.47;;
37495;SDS011;23346;52.088;4.746;2023-04-01T03:27:30;14.47;;;5.27;;
37495;SDS011;23346;52.088;4.746;2023-04-01T03:29:56;16.87;;;6.17;;
37495;SDS011;23346;52.088;4.746;2023-04-01T03:32:22;18.20;;;6.80;;
37495;SDS011;23346;52.088;4.746;2023-04-01T03:34:48;17.33;;;6.73;;
37495;SDS011;23346;52.088;4.746;2023-04-01T03:37:14;20.87;;;7.93;;
37495;SDS011;23346;52.088;4.746;2023-04-01T03:39:40;26.80;;;7.93;;
37495;SDS011;23346;52.088;4.746;2023-04-01T03:42:06;20.23;;;6.87;;
37495;SDS011;23346;52.088;4.746;2023-04-01T03:44:32;22.70;;;8.33;;
37495;SDS011;23346;52.088;4.746;2023-04-01T03:46:59;19.87;;;7.33;;
37495;SDS011;23346;52.088;4.746;2023-04-01T03:49:25;31.40;;;9.67;;
37495;SDS011;23346;52.088;4.746;2023-04-01T03:51:51;24.93;;;9.50;;
37495;SDS011;23346;52.088;4.746;2023-04-01T03:54:17;25.93;;;8.07;;
37495;SDS011;23346;52.088;4.746;2023-04-01T03:56:45;28.53;;;9.87;;
37495;SDS011;23346;52.088;4.746;2023-04-01T03:59:11;24.10;;;9.03;;
37495;SDS011;23346;52.088;4.746;2023-04-01T04:01:37;26.77;;;9.87;;
37495;SDS011;23346;52.088;4.746;2023-04-01T04:04:03;23.50;;;8.63;;
37495;SDS011;23346;52.088;4.746;2023-04-01T04:06:29;34.47;;;9.33;;
37495;SDS011;23346;52.088;4.746;2023-04-01T04:08:55;26.53;;;8.83;;
37495;SDS011;23346;52.088;4.746;2023-04-01T04:11:21;25.97;;;10.20;;
37495;SDS011;23346;52.088;4.746;2023-04-01T04:13:47;27.23;;;9.57;;
37495;SDS011;23346;52.088;4.746;2023-04-01T04:16:13;34.73;;;9.27;;
37495;SDS011;23346;52.088;4.746;2023-04-01T04:18:40;28.27;;;8.50;;
37495;SDS011;23346;52.088;4.746;2023-04-01T04:21:05;24.90;;;8.67;;
37495;SDS011;23346;52.088;4.746;2023-04-01T04:23:32;23.47;;;8.07;;
37495;SDS011;23346;52.088;4.746;2023-04-01T04:26:05;27.87;;;8.90;;
37495;SDS011;23346;52.088;4.746;2023-04-01T04:28:32;27.40;;;9.37;;
37495;SDS011;23346;52.088;4.746;2023-04-01T04:30:58;21.07;;;7.23;;
37495;SDS011;23346;52.088;4.746;2023-04-01T04:33:24;21.80;;;7.93;;
37495;SDS011;23346;52.088;4.746;2023-04-01T04:35:51;23.70;;;8.27;;
37495;SDS011;23346;52.088;4.746;2023-04-01T04:38:17;20.77;;;7.00;;
37495;SDS011;23346;52.088;4.746;2023-04-01T04:40:43;21.53;;;6.87;;
37495;SDS011;23346;52.088;4.746;2023-04-01T04:43:10;19.37;;;7.20;;
37495;SDS011;23346;52.088;4.746;2023-04-01T04:45:36;24.73;;;8.47;;
37495;SDS011;23346;52.088;4.746;2023-04-01T04:48:02;21.27;;;7.80;;
37495;SDS011;23346;52.088;4.746;2023-04-01T04:50:28;20.27;;;7.27;;
37495;SDS011;23346;52.088;4.746;2023-04-01T04:52:54;34.07;;;9.10;;
37495;SDS011;23346;52.088;4.746;2023-04-01T04:55:20;18.17;;;6.30;;
37495;SDS011;23346;52.088;4.746;2023-04-01T04:57:46;23.93;;;8.33;;
37495;SDS011;23346;52.088;4.746;2023-04-01T05:00:12;28.53;;;7.90;;
37495;SDS011;23346;52.088;4.746;2023-04-01T05:02:39;22.67;;;8.60;;
37495;SDS011;23346;52.088;4.746;2023-04-01T05:05:05;31.67;;;9.07;;
37495;SDS011;23346;52.088;4.746;2023-04-01T05:07:31;37.33;;;10.50;;
37495;SDS011;23346;52.088;4.746;2023-04-01T05:09:58;33.67;;;9.30;;
37495;SDS011;23346;52.088;4.746;2023-04-01T05:12:24;38.77;;;10.53;;
37495;SDS011;23346;52.088;4.746;2023-04-01T05:14:50;44.27;;;14.07;;
37495;SDS011;23346;52.088;4.746;2023-04-01T05:17:16;36.17;;;9.30;;
37495;SDS011;23346;52.088;4.746;2023-04-01T05:19:42;31.93;;;9.30;;
37495;SDS011;23346;52.088;4.746;2023-04-01T05:22:08;39.07;;;10.40;;
37495;SDS011;23346;52.088;4.746;2023-04-01T05:24:34;39.53;;;8.93;;
37495;SDS011;23346;52.088;4.746;2023-04-01T05:27:00;32.43;;;10.20;;
37495;SDS011;23346;52.088;4.746;2023-04-01T05:29:26;29.23;;;9.03;;
37495;SDS011;23346;52.088;4.746;2023-04-01T05:31:52;25.47;;;8.50;;
37495;SDS011;23346;52.088;4.746;2023-04-01T05:34:18;31.93;;;8.07;;
37495;SDS011;23346;52.088;4.746;2023-04-01T05:36:44;22.13;;;8.10;;
37495;SDS011;23346;52.088;4.746;2023-04-01T05:39:10;27.30;;;9.10;;
37495;SDS011;23346;52.088;4.746;2023-04-01T05:41:37;32.63;;;8.17;;
37495;SDS011;23346;52.088;4.746;2023-04-01T05:44:03;35.40;;;8.67;;
37495;SDS011;23346;52.088;4.746;2023-04-01T05:46:29;27.80;;;9.50;;
37495;SDS011;23346;52.088;4.746;2023-04-01T05:48:55;30.57;;;8.80;;
37495;SDS011;23346;52.088;4.746;2023-04-01T05:51:21;40.50;;;10.73;;
37495;SDS011;23346;52.088;4.746;2023-04-01T05:53:47;21.97;;;8.80;;
37495;SDS011;23346;52.088;4.746;2023-04-01T05:56:13;27.97;;;8.73;;
37495;SDS011;23346;52.088;4.746;2023-04-01T05:58:39;20.73;;;8.53;;
37495;SDS011;23346;52.088;4.746;2023-04-01T06:01:06;27.63;;;9.17;;
37495;SDS011;23346;52.088;4.746;2023-04-01T06:03:33;29.30;;;9.33;;
37495;SDS011;23346;52.088;4.746;2023-04-01T06:05:59;40.43;;;10.53;;
37495;SDS011;23346;52.088;4.746;2023-04-01T06:08:26;32.70;;;9.90;;
37495;SDS011;23346;52.088;4.746;2023-04-01T06:31:15;41.33;;;12.30;;
37495;SDS011;23346;52.088;4.746;2023-04-01T06:33:46;40.47;;;12.07;;
37495;SDS011;23346;52.088;4.746;2023-04-01T06:38:49;44.07;;;12.00;;
37495;SDS011;23346;52.088;4.746;2023-04-01T06:43:53;42.87;;;13.80;;
37495;SDS011;23346;52.088;4.746;2023-04-01T06:46:31;36.70;;;12.30;;
37495;SDS011;23346;52.088;4.746;2023-04-01T06:51:44;36.67;;;13.10;;
37495;SDS011;23346;52.088;4.746;2023-04-01T06:54:17;34.77;;;12.57;;
37495;SDS011;23346;52.088;4.746;2023-04-01T06:56:44;38.97;;;13.10;;
37495;SDS011;23346;52.088;4.746;2023-04-01T06:59:12;43.30;;;14.17;;
37495;SDS011;23346;52.088;4.746;2023-04-01T07:01:42;33.90;;;11.53;;
37495;SDS011;23346;52.088;4.746;2023-04-01T07:04:14;38.13;;;12.23;;
37495;SDS011;23346;52.088;4.746;2023-04-01T07:06:43;44.40;;;14.00;;
37495;SDS011;23346;52.088;4.746;2023-04-01T07:09:12;37.17;;;12.47;;
37495;SDS011;23346;52.088;4.746;2023-04-01T07:11:40;38.90;;;12.40;;
37495;SDS011;23346;52.088;4.746;2023-04-01T07:14:13;37.70;;;11.20;;
37495;SDS011;23346;52.088;4.746;2023-04-01T07:21:54;47.50;;;13.53;;
37495;SDS011;23346;52.088;4.746;2023-04-01T07:24:21;41.57;;;12.63;;
37495;SDS011;23346;52.088;4.746;2023-04-01T07:26:52;45.00;;;14.60;;
37495;SDS011;23346;52.088;4.746;2023-04-01T07:29:18;50.00;;;14.80;;
37495;SDS011;23346;52.088;4.746;2023-04-01T07:32:04;39.27;;;12.60;;
37495;SDS011;23346;52.088;4.746;2023-04-01T07:34:39;44.30;;;13.13;;
37495;SDS011;23346;52.088;4.746;2023-04-01T07:37:12;38.43;;;12.93;;
37495;SDS011;23346;52.088;4.746;2023-04-01T07:42:09;34.93;;;11.20;;
37495;SDS011;23346;52.088;4.746;2023-04-01T07:44:50;38.87;;;13.67;;
37495;SDS011;23346;52.088;4.746;2023-04-01T07:48:03;30.90;;;9.40;;
37495;SDS011;23346;52.088;4.746;2023-04-01T07:53:13;45.43;;;11.17;;
37495;SDS011;23346;52.088;4.746;2023-04-01T08:11:55;32.87;;;9.33;;
37495;SDS011;23346;52.088;4.746;2023-04-01T08:17:16;37.47;;;10.80;;
37495;SDS011;23346;52.088;4.746;2023-04-01T08:25:20;40.70;;;9.77;;
37495;SDS011;23346;52.088;4.746;2023-04-01T08:27:51;36.83;;;10.43;;
37495;SDS011;23346;52.088;4.746;2023-04-01T08:30:23;38.20;;;10.37;;
37495;SDS011;23346;52.088;4.746;2023-04-01T08:32:52;35.83;;;12.63;;
37495;SDS011;23346;52.088;4.746;2023-04-01T08:35:27;39.90;;;11.97;;
37495;SDS011;23346;52.088;4.746;2023-04-01T08:37:56;30.37;;;10.07;;
37495;SDS011;23346;52.088;4.746;2023-04-01T08:43:13;29.50;;;11.03;;
37495;SDS011;23346;52.088;4.746;2023-04-01T08:51:03;41.97;;;11.30;;
37495;SDS011;23346;52.088;4.746;2023-04-01T08:56:20;26.53;;;7.80;;
37495;SDS011;23346;52.088;4.746;2023-04-01T08:58:53;38.20;;;10.90;;
37495;SDS011;23346;52.088;4.746;2023-04-01T09:09:21;29.60;;;9.03;;
37495;SDS011;23346;52.088;4.746;2023-04-01T09:12:23;25.10;;;9.23;;
37495;SDS011;23346;52.088;4.746;2023-04-01T09:17:18;26.23;;;9.00;;
37495;SDS011;23346;52.088;4.746;2023-04-01T09:22:24;32.93;;;8.87;;
37495;SDS011;23346;52.088;4.746;2023-04-01T09:34:51;34.27;;;8.53;;
37495;SDS011;23346;52.088;4.746;2023-04-01T09:37:54;24.33;;;8.23;;
37495;SDS011;23346;52.088;4.746;2023-04-01T09:40:15;29.57;;;7.97;;
37495;SDS011;23346;52.088;4.746;2023-04-01T09:48:44;19.20;;;7.43;;
37495;SDS011;23346;52.088;4.746;2023-04-01T09:53:07;14.93;;;6.00;;
37495;SDS011;23346;52.088;4.746;2023-04-01T09:58:29;17.00;;;5.13;;
37495;SDS011;23346;52.088;4.746;2023-04-01T10:01:12;14.97;;;4.67;;
37495;SDS011;23346;52.088;4.746;2023-04-01T10:09:12;11.10;;;5.03;;
37495;SDS011;23346;52.088;4.746;2023-04-01T10:25:16;13.47;;;5.13;;
37495;SDS011;23346;52.088;4.746;2023-04-01T10:30:52;15.23;;;5.93;;
37495;SDS011;23346;52.088;4.746;2023-04-01T10:38:54;18.27;;;7.23;;
37495;SDS011;23346;52.088;4.746;2023-04-01T10:49:27;25.27;;;9.57;;
37495;SDS011;23346;52.088;4.746;2023-04-01T10:54:56;21.50;;;7.17;;
37495;SDS011;23346;52.088;4.746;2023-04-01T10:57:36;22.80;;;9.10;;
37495;SDS011;23346;52.088;4.746;2023-04-01T11:08:12;17.47;;;7.37;;
37495;SDS011;23346;52.088;4.746;2023-04-01T11:21:13;17.50;;;8.27;;
37495;SDS011;23346;52.088;4.746;2023-04-01T11:39:34;27.70;;;10.33;;
37495;SDS011;23346;52.088;4.746;2023-04-01T11:47:45;23.27;;;10.33;;
37495;SDS011;23346;52.088;4.746;2023-04-01T11:55:25;24.60;;;10.33;;
37495;SDS011;23346;52.088;4.746;2023-04-01T12:00:41;22.67;;;10.00;;
37495;SDS011;23346;52.088;4.746;2023-04-01T12:14:02;36.23;;;13.37;;
37495;SDS011;23346;52.088;4.746;2023-04-01T12:32:21;35.57;;;12.23;;
37495;SDS011;23346;52.088;4.746;2023-04-01T12:37:29;29.07;;;11.10;;
37495;SDS011;23346;52.088;4.746;2023-04-01T12:42:44;32.27;;;12.00;;
37495;SDS011;23346;52.088;4.746;2023-04-01T12:45:31;28.97;;;9.77;;
37495;SDS011;23346;52.088;4.746;2023-04-01T12:53:24;29.33;;;10.80;;
37495;SDS011;23346;52.088;4.746;2023-04-01T12:55:52;27.73;;;9.00;;
37495;SDS011;23346;52.088;4.746;2023-04-01T13:06:19;21.83;;;9.30;;
37495;SDS011;23346;52.088;4.746;2023-04-01T13:08:52;20.83;;;8.13;;
37495;SDS011;23346;52.088;4.746;2023-04-01T13:11:34;22.33;;;8.00;;
37495;SDS011;23346;52.088;4.746;2023-04-01T13:14:09;28.10;;;8.87;;
37495;SDS011;23346;52.088;4.746;2023-04-01T13:19:17;33.40;;;10.23;;
37495;SDS011;23346;52.088;4.746;2023-04-01T13:26:52;26.17;;;12.13;;
37495;SDS011;23346;52.088;4.746;2023-04-01T13:29:21;0.83;;;0.83;;
37495;SDS011;23346;52.088;4.746;2023-04-01T13:37:28;0.90;;;0.90;;
37495;SDS011;23346;52.088;4.746;2023-04-01T13:40:00;0.70;;;0.70;;
37495;SDS011;23346;52.088;4.746;2023-04-01T13:42:29;0.70;;;0.70;;
37495;SDS011;23346;52.088;4.746;2023-04-01T13:45:09;0.77;;;0.67;;
37495;SDS011;23346;52.088;4.746;2023-04-01T13:47:43;1.93;;;0.93;;
37495;SDS011;23346;52.088;4.746;2023-04-01T13:50:23;2.73;;;1.90;;
37495;SDS011;23346;52.088;4.746;2023-04-01T13:58:04;3.13;;;0.93;;
37495;SDS011;23346;52.088;4.746;2023-04-01T14:11:21;3.70;;;0.60;;
37495;SDS011;23346;52.088;4.746;2023-04-01T14:16:25;2.13;;;2.00;;
37495;SDS011;23346;52.088;4.746;2023-04-01T14:24:03;1.10;;;1.00;;
37495;SDS011;23346;52.088;4.746;2023-04-01T14:29:15;0.83;;;0.83;;
37495;SDS011;23346;52.088;4.746;2023-04-01T14:31:47;0.50;;;0.50;;
37495;SDS011;23346;52.088;4.746;2023-04-01T14:36:45;0.83;;;0.83;;
37495;SDS011;23346;52.088;4.746;2023-04-01T14:42:18;0.50;;;0.50;;
37495;SDS011;23346;52.088;4.746;2023-04-01T14:45:02;3.63;;;1.83;;
37495;SDS011;23346;52.088;4.746;2023-04-01T14:50:22;0.70;;;0.57;;
37495;SDS011;23346;52.088;4.746;2023-04-01T14:52:56;0.80;;;0.80;;
37495;SDS011;23346;52.088;4.746;2023-04-01T14:58:07;0.40;;;0.40;;
37495;SDS011;23346;52.088;4.746;2023-04-01T15:08:23;0.50;;;0.50;;
37495;SDS011;23346;52.088;4.746;2023-04-01T15:21:38;1.57;;;1.37;;
37495;SDS011;23346;52.088;4.746;2023-04-01T15:24:24;0.53;;;0.53;;
37495;SDS011;23346;52.088;4.746;2023-04-01T15:32:31;0.47;;;0.47;;
37495;SDS011;23346;52.088;4.746;2023-04-01T15:35:18;0.60;;;0.60;;
37495;SDS011;23346;52.088;4.746;2023-04-01T15:37:53;1.67;;;1.57;;
37495;SDS011;23346;52.088;4.746;2023-04-01T15:40:38;0.40;;;0.40;;
37495;SDS011;23346;52.088;4.746;2023-04-01T15:43:18;0.63;;;0.63;;
37495;SDS011;23346;52.088;4.746;2023-04-01T15:45:56;0.57;;;0.57;;
37495;SDS011;23346;52.088;4.746;2023-04-01T15:48:35;0.40;;;0.40;;
37495;SDS011;23346;52.088;4.746;2023-04-01T15:58:52;1.60;;;1.50;;
37495;SDS011;23346;52.088;4.746;2023-04-01T16:04:11;1.97;;;0.60;;
37495;SDS011;23346;52.088;4.746;2023-04-01T16:06:53;0.77;;;0.77;;
37495;SDS011;23346;52.088;4.746;2023-04-01T16:09:28;0.57;;;0.57;;
37495;SDS011;23346;52.088;4.746;2023-04-01T16:14:45;1.00;;;0.90;;
37495;SDS011;23346;52.088;4.746;2023-04-01T16:17:18;0.30;;;0.30;;
37495;SDS011;23346;52.088;4.746;2023-04-01T16:20:12;0.60;;;0.60;;
37495;SDS011;23346;52.088;4.746;2023-04-01T16:22:53;1.13;;;0.40;;
37495;SDS011;23346;52.088;4.746;2023-04-01T16:25:26;0.20;;;0.20;;
37495;SDS011;23346;52.088;4.746;2023-04-01T16:28:02;0.50;;;0.50;;
37495;SDS011;23346;52.088;4.746;2023-04-01T16:35:54;1.07;;;0.87;;
37495;SDS011;23346;52.088;4.746;2023-04-01T16:40:50;1.03;;;1.03;;
37495;SDS011;23346;52.088;4.746;2023-04-01T16:45:47;2.13;;;0.80;;
37495;SDS011;23346;52.088;4.746;2023-04-01T16:48:20;1.90;;;0.97;;
37495;SDS011;23346;52.088;4.746;2023-04-01T16:50:58;1.20;;;1.07;;
37495;SDS011;23346;52.088;4.746;2023-04-01T16:53:31;0.67;;;0.67;;
37495;SDS011;23346;52.088;4.746;2023-04-01T16:58:27;1.47;;;0.60;;
37495;SDS011;23346;52.088;4.746;2023-04-01T17:01:04;0.33;;;0.33;;
37495;SDS011;23346;52.088;4.746;2023-04-01T17:03:42;0.50;;;0.50;;
37495;SDS011;23346;52.088;4.746;2023-04-01T17:06:16;0.30;;;0.30;;
37495;SDS011;23346;52.088;4.746;2023-04-01T17:09:31;0.20;;;0.20;;
37495;SDS011;23346;52.088;4.746;2023-04-01T17:11:56;0.30;;;0.30;;
37495;SDS011;23346;52.088;4.746;2023-04-01T17:14:28;0.20;;;0.20;;
37495;SDS011;23346;52.088;4.746;2023-04-01T17:19:46;0.47;;;0.47;;
37495;SDS011;23346;52.088;4.746;2023-04-01T17:25:00;0.20;;;0.20;;
37495;SDS011;23346;52.088;4.746;2023-04-01T17:27:38;0.37;;;0.37;;
37495;SDS011;23346;52.088;4.746;2023-04-01T17:32:47;0.27;;;0.27;;
37495;SDS011;23346;52.088;4.746;2023-04-01T17:35:19;0.60;;;0.60;;
37495;SDS011;23346;52.088;4.746;2023-04-01T17:45:24;0.20;;;0.20;;
37495;SDS011;23346;52.088;4.746;2023-04-01T17:50:47;1.57;;;1.47;;
37495;SDS011;23346;52.088;4.746;2023-04-01T17:56:04;0.40;;;0.40;;
37495;SDS011;23346;52.088;4.746;2023-04-01T17:58:41;0.20;;;0.20;;
37495;SDS011;23346;52.088;4.746;2023-04-01T18:04:05;0.63;;;0.47;;
37495;SDS011;23346;52.088;4.746;2023-04-01T18:06:38;0.37;;;0.37;;
37495;SDS011;23346;52.088;4.746;2023-04-01T18:14:38;0.20;;;0.20;;
37495;SDS011;23346;52.088;4.746;2023-04-01T18:17:12;0.70;;;0.67;;
37495;SDS011;23346;52.088;4.746;2023-04-01T18:19:58;0.63;;;0.63;;
37495;SDS011;23346;52.088;4.746;2023-04-01T18:25:02;0.50;;;0.50;;
37495;SDS011;23346;52.088;4.746;2023-04-01T18:27:37;0.20;;;0.20;;
37495;SDS011;23346;52.088;4.746;2023-04-01T18:30:07;1.70;;;0.50;;
37495;SDS011;23346;52.088;4.746;2023-04-01T18:32:44;0.30;;;0.30;;
37495;SDS011;23346;52.088;4.746;2023-04-01T18:35:29;0.67;;;0.30;;
37495;SDS011;23346;52.088;4.746;2023-04-01T18:37:59;0.30;;;0.30;;
37495;SDS011;23346;52.088;4.746;2023-04-01T18:40:36;0.43;;;0.43;;
37495;SDS011;23346;52.088;4.746;2023-04-01T18:43:18;1.03;;;0.60;;
37495;SDS011;23346;52.088;4.746;2023-04-01T18:45:59;1.67;;;1.57;;
37495;SDS011;23346;52.088;4.746;2023-04-01T18:51:16;0.30;;;0.30;;
37495;SDS011;23346;52.088;4.746;2023-04-01T18:53:45;0.67;;;0.60;;
37495;SDS011;23346;52.088;4.746;2023-04-01T18:56:14;0.37;;;0.37;;
37495;SDS011;23346;52.088;4.746;2023-04-01T18:58:53;0.30;;;0.30;;
37495;SDS011;23346;52.088;4.746;2023-04-01T19:01:35;0.40;;;0.30;;
37495;SDS011;23346;52.088;4.746;2023-04-01T19:04:08;2.53;;;0.97;;
37495;SDS011;23346;52.088;4.746;2023-04-01T19:06:41;0.90;;;0.90;;
37495;SDS011;23346;52.088;4.746;2023-04-01T19:09:24;0.80;;;0.80;;
37495;SDS011;23346;52.088;4.746;2023-04-01T19:30:56;0.50;;;0.50;;
37495;SDS011;23346;52.088;4.746;2023-04-01T19:36:16;0.93;;;0.50;;
37495;SDS011;23346;52.088;4.746;2023-04-01T19:39:00;1.47;;;1.37;;
37495;SDS011;23346;52.088;4.746;2023-04-01T19:49:11;0.30;;;0.30;;
37495;SDS011;23346;52.088;4.746;2023-04-01T19:51:50;0.40;;;0.40;;
37495;SDS011;23346;52.088;4.746;2023-04-01T20:04:56;0.77;;;0.77;;
37495;SDS011;23346;52.088;4.746;2023-04-01T20:07:33;0.80;;;0.77;;
37495;SDS011;23346;52.088;4.746;2023-04-01T20:15:20;0.30;;;0.30;;
37495;SDS011;23346;52.088;4.746;2023-04-01T20:17:46;0.50;;;0.50;;
37495;SDS011;23346;52.088;4.746;2023-04-01T20:25:05;2.30;;;1.97;;
37495;SDS011;23346;52.088;4.746;2023-04-01T20:27:36;0.77;;;0.77;;
37495;SDS011;23346;52.088;4.746;2023-04-01T20:30:32;0.80;;;0.80;;
37495;SDS011;23346;52.088;4.746;2023-04-01T20:35:39;0.40;;;0.40;;
37495;SDS011;23346;52.088;4.746;2023-04-01T20:40:56;0.30;;;0.30;;
37495;SDS011;23346;52.088;4.746;2023-04-01T20:46:39;0.43;;;0.43;;
37495;SDS011;23346;52.088;4.746;2023-04-01T20:51:52;0.47;;;0.47;;
37495;SDS011;23346;52.088;4.746;2023-04-01T21:01:41;1.73;;;1.63;;
37495;SDS011;23346;52.088;4.746;2023-04-01T21:11:43;0.20;;;0.20;;
37495;SDS011;23346;52.088;4.746;2023-04-01T21:17:09;0.40;;;0.40;;
37495;SDS011;23346;52.088;4.746;2023-04-01T21:25:09;0.30;;;0.30;;
37495;SDS011;23346;52.088;4.746;2023-04-01T21:40:32;0.87;;;0.87;;
37495;SDS011;23346;52.088;4.746;2023-04-01T21:45:51;0.37;;;0.37;;
37495;SDS011;23346;52.088;4.746;2023-04-01T21:50:48;0.50;;;0.50;;
37495;SDS011;23346;52.088;4.746;2023-04-01T21:53:30;0.30;;;0.30;;
37495;SDS011;23346;52.088;4.746;2023-04-01T22:03:58;0.57;;;0.57;;
37495;SDS011;23346;52.088;4.746;2023-04-01T22:06:30;1.43;;;1.23;;
37495;SDS011;23346;52.088;4.746;2023-04-01T22:14:21;0.57;;;0.57;;
37495;SDS011;23346;52.088;4.746;2023-04-01T22:22:01;1.43;;;1.33;;
37495;SDS011;23346;52.088;4.746;2023-04-01T22:24:41;0.50;;;0.50;;
37495;SDS011;23346;52.088;4.746;2023-04-01T22:29:41;1.10;;;1.00;;
37495;SDS011;23346;52.088;4.746;2023-04-01T22:34:42;1.20;;;1.20;;
37495;SDS011;23346;52.088;4.746;2023-04-01T22:39:57;8.17;;;2.60;;
37495;SDS011;23346;52.088;4.746;2023-04-01T22:45:14;0.40;;;0.40;;
37495;SDS011;23346;52.088;4.746;2023-04-01T22:52:55;0.47;;;0.47;;
37495;SDS011;23346;52.088;4.746;2023-04-01T22:55:25;0.50;;;0.50;;
37495;SDS011;23346;52.088;4.746;2023-04-01T23:00:20;1.00;;;1.00;;
37495;SDS011;23346;52.088;4.746;2023-04-01T23:05:33;0.57;;;0.57;;
37495;SDS011;23346;52.088;4.746;2023-04-01T23:10:59;0.30;;;0.30;;
37495;SDS011;23346;52.088;4.746;2023-04-01T23:13:41;0.43;;;0.43;;
37495;SDS011;23346;52.088;4.746;2023-04-01T23:16:08;1.20;;;1.10;;
37495;SDS011;23346;52.088;4.746;2023-04-01T23:18:45;0.73;;;0.73;;
37495;SDS011;23346;52.088;4.746;2023-04-01T23:21:15;0.60;;;0.60;;
37495;SDS011;23346;52.088;4.746;2023-04-01T23:28:54;0.50;;;0.50;;
37495;SDS011;23346;52.088;4.746;2023-04-01T23:33:58;0.80;;;0.80;;
37495;SDS011;23346;52.088;4.746;2023-04-01T23:36:25;1.00;;;1.00;;
37495;SDS011;23346;52.088;4.746;2023-04-01T23:38:51;3.83;;;1.60;;
37495;SDS011;23346;52.088;4.746;2023-04-01T23:41:19;1.10;;;1.10;;
37495;SDS011;23346;52.088;4.746;2023-04-01T23:43:54;0.97;;;0.97;;
37495;SDS011;23346;52.088;4.746;2023-04-01T23:46:21;0.50;;;0.50;;
37495;SDS011;23346;52.088;4.746;2023-04-01T23:48:47;0.80;;;0.80;;
37495;SDS011;23346;52.088;4.746;2023-04-01T23:51:25;0.87;;;0.87;;
37495;SDS011;23346;52.088;4.746;2023-04-01T23:56:41;18.67;;;10.40;;
37495;SDS011;23346;52.088;4.746;2023-04-01T23:59:11;24.57;;;10.90;;
